METAR & TAF

RJAA 210600Z 08005KT 9999 FEW025 SCT050 10/04 Q1014 NOSIG RMK 1CU025 3SC050 A2995 MOD TURB OBS AT 0545Z 10NM N BINKS 8000FT B738 ANA2178
RJAA 210530Z 09004KT 060V140 9999 FEW025 BKN030 BKN050 10/04 Q1014 NOSIG RMK 1CU025 5CU030 7SC050 A2995 MOD ICING OBS AT 0506Z 30NM SE NARITA BTN 9000FT AND 6000FT IN DES A333 CRK608
RJAA 210500Z VRB02KT 9999 FEW025 BKN030 BKN050 10/03 Q1014 BECMG 12005KT RMK 1CU025 5CU030 7SC050 A2995
RJAA 210430Z 17004KT 140V210 9999 FEW025 SCT040 10/03 Q1014 NOSIG RMK 1CU025 4SC040 A2995
RJAA 210400Z VRB02KT 9999 FEW020 SCT030 BKN040 10/04 Q1014 BECMG 12005KT
RJAA 210330Z VRB02KT 9999 FEW020 BKN045 BKN/// 10/04 Q1014 NOSIG
RJAA 210300Z VRB02KT 9999 FEW020 BKN045 10/04 Q1015 NOSIG RMK 1CU020 6SC045 A2998
RJAA 210230Z VRB01KT 9000 FEW020 09/04 Q1015 BECMG 04005KT
RJAA 210200Z 31003KT 260V030 9000 FEW020 08/03 Q1016 NOSIG RMK 1CU020 A3001
RJAA 210130Z 30004KT 270V330 9000 FEW030 07/04 Q1016 NOSIG RMK 1CU030 A3002

TAF RJAA 210509Z 2106/2212 12006KT 9999 FEW030
  BECMG 2109/2111 01010KT
  TEMPO 2203/2209 03019G30KT
  TEMPO 2209/2212 03019G30KT 4000 -RASN BR FEW005 BKN008